Time;durP1;ratioP1;P1;durP2;ratioP2;P2;SDS_P1;SDS_P2;PMS_P1;PMS_P2;Temp;Humidity;BMP_temperature;BMP_pressure;BME280_temperature;BME280_humidity;BME280_pressure;Samples;Min_cycle;Max_cycle;Signal;HPM_P1;HPM_P2
2021/03/03 00:01:30;;;;;;;6.35;5.75;;;7.40;99.90;;;;;;5006239;28;20236;-73
2021/03/03 00:03:56;;;;;;;7.00;6.40;;;7.30;99.90;;;;;;5003055;28;20594;-76
2021/03/03 00:06:24;;;;;;;6.32;5.70;;;7.30;99.90;;;;;;5004487;28;20220;-73
2021/03/03 00:08:50;;;;;;;5.97;5.30;;;7.20;99.90;;;;;;5006806;28;20231;-74
2021/03/03 00:11:17;;;;;;;5.32;4.82;;;7.10;99.90;;;;;;5005243;28;20224;-76
2021/03/03 00:13:43;;;;;;;5.60;5.10;;;7.10;99.90;;;;;;5008262;28;20231;-72
2021/03/03 00:16:10;;;;;;;6.07;5.35;;;7.20;99.90;;;;;;5007331;28;20223;-75
2021/03/03 00:18:37;;;;;;;6.05;5.45;;;7.10;99.90;;;;;;5007026;28;20269;-73
2021/03/03 00:21:03;;;;;;;6.47;5.25;;;7.10;99.90;;;;;;5005599;28;20224;-73
2021/03/03 00:23:31;;;;;;;6.35;5.75;;;7.10;99.90;;;;;;5005308;28;20224;-73
2021/03/03 00:25:57;;;;;;;7.30;5.53;;;7.10;99.90;;;;;;5007301;28;20232;-72
2021/03/03 00:28:24;;;;;;;5.72;5.22;;;7.10;99.90;;;;;;5009719;28;20224;-73
2021/03/03 00:30:51;;;;;;;5.93;5.32;;;7.10;99.90;;;;;;5001740;28;20286;-74
2021/03/03 00:33:17;;;;;;;6.53;5.93;;;7.10;99.90;;;;;;5008447;28;20263;-74
2021/03/03 00:35:44;;;;;;;6.43;5.82;;;7.00;99.90;;;;;;5008133;28;20227;-73
2021/03/03 00:38:10;;;;;;;6.05;5.45;;;7.00;99.90;;;;;;5002859;28;20240;-74
2021/03/03 00:40:38;;;;;;;6.13;5.53;;;7.00;99.90;;;;;;5001293;28;20601;-74
2021/03/03 00:43:05;;;;;;;5.07;4.68;;;7.00;99.90;;;;;;5006418;28;20741;-73
2021/03/03 00:45:31;;;;;;;5.25;4.75;;;6.90;99.90;;;;;;5003198;28;20220;-73
2021/03/03 00:47:58;;;;;;;6.15;5.55;;;7.00;99.90;;;;;;4997551;28;20246;-72
2021/03/03 00:50:25;;;;;;;6.50;5.43;;;6.90;99.90;;;;;;5007609;28;20235;-74
2021/03/03 00:55:27;;;;;;;4.93;4.53;;;6.80;99.90;;;;;;5008552;23;20628;-75
2021/03/03 00:57:54;;;;;;;5.50;5.00;;;6.80;99.90;;;;;;4983002;28;20275;-75
2021/03/03 01:00:21;;;;;;;5.53;4.95;;;6.80;99.90;;;;;;4984090;28;20229;-75
2021/03/03 01:02:48;;;;;;;5.03;4.63;;;6.80;99.90;;;;;;4992792;28;20221;-75
2021/03/03 01:05:15;;;;;;;5.47;4.97;;;6.70;99.90;;;;;;4967090;28;20233;-75
2021/03/03 01:07:42;;;;;;;5.07;4.57;;;6.70;99.90;;;;;;4966169;28;20236;-75
2021/03/03 01:10:09;;;;;;;4.65;4.25;;;6.60;99.90;;;;;;4964390;28;20666;-75
2021/03/03 01:12:36;;;;;;;5.25;4.75;;;6.60;99.90;;;;;;4968314;28;20232;-75
2021/03/03 01:15:06;;;;;;;4.05;3.65;;;6.60;99.90;;;;;;4963033;28;20226;-75
2021/03/03 01:17:33;;;;;;;5.03;4.43;;;6.60;99.90;;;;;;4963709;28;20229;-75
2021/03/03 01:20:00;;;;;;;4.43;4.03;;;6.60;99.90;;;;;;4967844;28;20235;-75
2021/03/03 01:22:27;;;;;;;5.38;4.85;;;6.50;99.90;;;;;;4966444;28;20241;-74
2021/03/03 01:24:54;;;;;;;5.07;4.55;;;6.50;99.90;;;;;;4966377;28;20225;-75
2021/03/03 01:27:20;;;;;;;5.55;5.05;;;6.50;99.90;;;;;;4965312;28;20244;-75
2021/03/03 01:29:47;;;;;;;4.63;4.22;;;6.50;99.90;;;;;;4966296;28;20229;-75
2021/03/03 01:32:15;;;;;;;5.03;4.50;;;6.40;99.90;;;;;;4968281;28;20229;-76
2021/03/03 01:34:41;;;;;;;5.47;4.80;;;6.40;99.90;;;;;;4968205;28;20308;-75
2021/03/03 01:37:08;;;;;;;5.70;5.10;;;6.40;99.90;;;;;;4966208;28;20230;-75
2021/03/03 01:39:34;;;;;;;5.35;4.70;;;6.30;99.90;;;;;;4963336;28;20712;-76
2021/03/03 01:42:01;;;;;;;5.45;4.95;;;6.30;99.90;;;;;;4965383;28;20299;-75
2021/03/03 01:44:27;;;;;;;5.05;4.65;;;6.30;99.90;;;;;;4965587;28;20237;-75
2021/03/03 01:46:54;;;;;;;4.40;4.00;;;6.30;99.90;;;;;;4966717;28;20731;-75
2021/03/03 01:49:21;;;;;;;4.55;4.25;;;6.30;99.90;;;;;;4965918;28;20229;-75
2021/03/03 01:51:48;;;;;;;4.75;4.35;;;6.30;99.90;;;;;;4966479;28;20784;-75
2021/03/03 01:54:15;;;;;;;4.72;4.32;;;6.20;99.90;;;;;;4967052;28;20317;-75
2021/03/03 01:56:45;;;;;;;5.88;4.35;;;6.20;99.90;;;;;;4965161;28;20228;-75
2021/03/03 01:59:11;;;;;;;3.78;3.47;;;6.30;99.90;;;;;;4963681;28;20233;-75
2021/03/03 02:01:38;;;;;;;5.10;4.60;;;6.20;99.90;;;;;;4964923;28;20217;-75
2021/03/03 02:04:05;;;;;;;4.80;4.40;;;6.20;99.90;;;;;;4961675;28;20222;-75
2021/03/03 02:06:44;;;;;;;4.68;4.28;;;6.10;99.90;;;;;;4965119;28;20229;-75
2021/03/03 02:09:15;;;;;;;4.47;4.05;;;6.00;99.90;;;;;;4963798;28;20590;-75
2021/03/03 02:11:48;;;;;;;4.05;3.65;;;6.00;99.90;;;;;;4964884;28;20236;-75
2021/03/03 02:14:20;;;;;;;4.90;4.30;;;6.00;99.90;;;;;;4961633;28;20600;-76
2021/03/03 02:16:48;;;;;;;5.18;4.38;;;6.00;99.90;;;;;;4964176;28;20615;-76
2021/03/03 02:19:21;;;;;;;4.88;4.47;;;6.00;99.90;;;;;;4965219;28;20230;-75
2021/03/03 02:21:59;;;;;;;4.53;4.13;;;6.00;99.90;;;;;;4963403;28;20221;-75
2021/03/03 02:24:30;;;;;;;4.47;4.05;;;6.00;99.90;;;;;;4963445;28;20781;-75
2021/03/03 02:26:58;;;;;;;4.53;4.13;;;6.00;99.90;;;;;;4961867;28;20232;-75
2021/03/03 02:30:20;;;;;;;4.97;4.47;;;5.90;99.90;;;;;;4964442;28;20225;-75
2021/03/03 02:32:48;;;;;;;4.55;4.15;;;5.90;99.90;;;;;;4965384;28;20245;-76
2021/03/03 02:35:15;;;;;;;3.78;3.47;;;5.90;99.90;;;;;;4962106;28;20242;-77
2021/03/03 02:37:43;;;;;;;4.15;3.85;;;5.80;99.90;;;;;;4963631;28;20285;-75
2021/03/03 02:40:12;;;;;;;4.53;3.65;;;5.80;99.90;;;;;;4961049;28;20225;-74
2021/03/03 02:42:40;;;;;;;4.47;3.85;;;5.80;99.90;;;;;;4962277;28;20218;-75
2021/03/03 02:45:09;;;;;;;4.30;3.97;;;5.80;99.90;;;;;;4965395;28;20229;-74
2021/03/03 02:47:37;;;;;;;4.70;4.30;;;5.80;99.90;;;;;;4962271;28;20249;-75
2021/03/03 02:50:06;;;;;;;4.40;4.00;;;5.70;99.90;;;;;;4965393;28;20225;-75
2021/03/03 02:52:47;;;;;;;5.03;4.50;;;5.70;99.90;;;;;;4959677;28;20232;-75
2021/03/03 02:55:14;;;;;;;4.38;3.97;;;5.70;99.90;;;;;;4965342;28;20217;-74
2021/03/03 02:57:42;;;;;;;4.47;4.07;;;5.60;99.90;;;;;;4962179;28;20233;-74
2021/03/03 03:00:10;;;;;;;4.22;3.92;;;5.60;99.90;;;;;;4965009;28;20229;-75
2021/03/03 03:02:39;;;;;;;4.82;3.95;;;5.60;99.90;;;;;;4959871;28;20229;-75
2021/03/03 03:05:07;;;;;;;4.15;3.78;;;5.50;99.90;;;;;;4960462;28;20703;-75
2021/03/03 03:07:40;;;;;;;4.40;4.00;;;5.50;99.90;;;;;;4964537;28;20229;-74
2021/03/03 03:10:09;;;;;;;5.10;4.03;;;5.50;99.90;;;;;;4963421;28;20226;-75
2021/03/03 03:12:37;;;;;;;4.35;3.95;;;5.50;99.90;;;;;;4960452;28;20607;-74
2021/03/03 03:15:07;;;;;;;4.35;3.95;;;5.50;99.90;;;;;;4960912;28;20225;-75
2021/03/03 03:17:35;;;;;;;4.72;4.32;;;5.60;99.90;;;;;;4962541;28;20572;-74
2021/03/03 03:20:05;;;;;;;3.47;3.28;;;5.60;99.90;;;;;;4966925;28;20623;-75
2021/03/03 03:22:34;;;;;;;4.03;3.72;;;5.60;99.90;;;;;;4957243;28;20225;-75
2021/03/03 03:25:03;;;;;;;4.18;3.88;;;5.70;99.90;;;;;;4963165;28;20236;-75
2021/03/03 03:27:31;;;;;;;4.45;4.05;;;5.70;99.90;;;;;;4964899;28;20655;-75
2021/03/03 03:30:00;;;;;;;4.30;4.00;;;5.70;99.90;;;;;;4961420;28;20342;-75
2021/03/03 03:32:27;;;;;;;4.95;4.55;;;5.70;99.90;;;;;;4964914;28;20615;-75
2021/03/03 03:34:55;;;;;;;4.20;3.90;;;5.70;99.90;;;;;;4962603;28;20218;-75
2021/03/03 03:37:23;;;;;;;4.35;3.60;;;5.60;99.90;;;;;;4959073;28;20245;-74
2021/03/03 03:39:50;;;;;;;4.32;3.92;;;5.60;99.90;;;;;;4961335;28;20253;-75
2021/03/03 03:42:18;;;;;;;3.90;3.60;;;5.60;99.90;;;;;;4966311;28;20221;-75
2021/03/03 03:44:46;;;;;;;4.22;3.92;;;5.60;99.90;;;;;;4960304;28;20236;-75
2021/03/03 03:47:17;;;;;;;3.92;3.53;;;5.50;99.90;;;;;;4963767;28;20221;-75
2021/03/03 03:49:45;;;;;;;3.45;3.20;;;5.50;99.90;;;;;;4961530;28;20225;-75
2021/03/03 03:52:15;;;;;;;4.20;3.90;;;5.40;99.90;;;;;;4964073;28;20236;-75
2021/03/03 03:54:48;;;;;;;4.30;4.00;;;5.40;99.90;;;;;;4960304;28;20642;-75
2021/03/03 03:57:15;;;;;;;4.82;4.43;;;5.30;99.90;;;;;;4964293;28;22179;-75
2021/03/03 03:59:42;;;;;;;3.83;3.40;;;5.30;99.90;;;;;;4961852;28;20253;-75
2021/03/03 04:02:08;;;;;;;3.95;3.65;;;5.20;99.90;;;;;;4962403;28;20234;-74
2021/03/03 04:04:35;;;;;;;4.28;3.97;;;5.30;99.90;;;;;;4960547;28;20622;-74
2021/03/03 04:07:03;;;;;;;4.60;3.97;;;5.30;99.90;;;;;;4960535;28;20373;-75
2021/03/03 04:09:30;;;;;;;3.83;3.53;;;5.20;99.90;;;;;;4961965;28;20759;-74
2021/03/03 04:11:57;;;;;;;4.10;3.70;;;5.20;99.90;;;;;;4963229;28;20229;-75
2021/03/03 04:14:23;;;;;;;4.40;4.00;;;5.20;99.90;;;;;;4964378;28;20724;-76
2021/03/03 04:16:50;;;;;;;3.70;3.50;;;5.30;99.90;;;;;;4964755;28;20226;-75
2021/03/03 04:19:17;;;;;;;4.10;3.80;;;5.30;99.90;;;;;;4961616;28;20229;-75
2021/03/03 04:21:45;;;;;;;3.80;3.50;;;5.30;99.90;;;;;;4966531;28;20602;-74
2021/03/03 04:24:12;;;;;;;3.90;3.60;;;5.30;99.90;;;;;;4967762;28;20229;-74
2021/03/03 04:26:39;;;;;;;4.25;3.95;;;5.30;99.90;;;;;;4966228;28;20225;-75
2021/03/03 04:29:05;;;;;;;4.65;3.85;;;5.30;99.90;;;;;;4964528;28;20727;-75
2021/03/03 04:32:00;;;;;;;3.65;3.35;;;5.10;99.90;;;;;;4964456;28;20284;-75
2021/03/03 04:34:26;;;;;;;3.88;3.58;;;5.10;99.90;;;;;;4964339;28;20245;-75
2021/03/03 04:36:53;;;;;;;4.28;3.88;;;5.10;99.90;;;;;;4966728;28;20221;-74
2021/03/03 04:39:20;;;;;;;4.50;3.78;;;5.10;99.90;;;;;;4964505;28;20225;-74
2021/03/03 04:41:47;;;;;;;3.65;3.35;;;5.00;99.90;;;;;;4963362;28;20727;-74
2021/03/03 04:44:14;;;;;;;3.85;3.55;;;5.00;99.90;;;;;;4964405;28;20913;-74
2021/03/03 04:46:41;;;;;;;4.05;3.75;;;5.00;99.90;;;;;;4965994;28;20308;-74
2021/03/03 04:49:08;;;;;;;3.88;3.58;;;5.00;99.90;;;;;;4965058;28;20230;-74
2021/03/03 04:51:35;;;;;;;3.53;3.22;;;5.00;99.90;;;;;;4966464;28;20236;-74
2021/03/03 04:54:02;;;;;;;4.10;3.80;;;4.90;99.90;;;;;;4967300;28;20234;-74
2021/03/03 04:56:30;;;;;;;3.85;3.55;;;4.90;99.90;;;;;;4967356;28;20229;-74
2021/03/03 04:58:56;;;;;;;3.95;3.65;;;4.90;99.90;;;;;;4966897;28;20217;-75
2021/03/03 05:01:23;;;;;;;3.67;3.38;;;4.80;99.90;;;;;;4963611;28;20245;-75
2021/03/03 05:03:49;;;;;;;4.10;3.80;;;4.80;99.90;;;;;;4968985;28;20606;-74
2021/03/03 05:06:16;;;;;;;3.47;3.28;;;4.80;99.90;;;;;;4964376;28;20260;-74
2021/03/03 05:08:42;;;;;;;3.25;3.05;;;4.70;99.90;;;;;;4969534;28;20226;-74
2021/03/03 05:11:09;;;;;;;3.63;3.33;;;4.70;99.90;;;;;;4964563;28;20281;-74
2021/03/03 05:13:36;;;;;;;3.50;3.25;;;4.80;99.90;;;;;;4966794;28;20703;-74
2021/03/03 05:16:03;;;;;;;4.00;3.70;;;4.70;99.90;;;;;;4965200;28;20250;-74
2021/03/03 05:18:30;;;;;;;3.70;3.40;;;4.70;99.90;;;;;;4966111;28;20233;-74
2021/03/03 05:20:56;;;;;;;3.70;3.50;;;4.70;99.90;;;;;;4963858;28;20221;-74
2021/03/03 05:23:27;;;;;;;3.67;3.38;;;4.70;99.90;;;;;;4965896;28;20226;-74
2021/03/03 05:25:54;;;;;;;3.60;3.30;;;4.70;99.90;;;;;;4964673;28;20221;-78
2021/03/03 05:28:21;;;;;;;4.72;4.32;;;4.70;99.90;;;;;;4964756;28;20732;-76
2021/03/03 05:30:49;;;;;;;4.18;3.88;;;4.70;99.90;;;;;;4964457;28;20637;-74
2021/03/03 05:33:23;;;;;;;4.03;3.72;;;4.70;99.90;;;;;;4969075;28;20229;-76
2021/03/03 05:35:50;;;;;;;3.85;3.55;;;4.70;99.90;;;;;;4967486;28;20770;-74
2021/03/03 05:38:16;;;;;;;3.63;3.30;;;4.70;99.90;;;;;;4968621;28;20225;-74
2021/03/03 05:40:45;;;;;;;3.95;3.60;;;4.70;99.90;;;;;;4963217;28;20221;-76
2021/03/03 05:43:12;;;;;;;4.07;3.78;;;4.60;99.90;;;;;;4967058;28;20758;-76
2021/03/03 05:45:41;;;;;;;3.85;3.55;;;4.60;99.90;;;;;;4966186;28;20233;-74
2021/03/03 05:48:12;;;;;;;3.95;3.67;;;4.60;99.90;;;;;;4966661;28;20241;-75
2021/03/03 05:50:43;;;;;;;4.25;3.95;;;4.60;99.90;;;;;;4964587;28;20225;-75
2021/03/03 05:53:09;;;;;;;4.70;4.30;;;4.50;99.90;;;;;;4964479;28;20226;-75
2021/03/03 05:55:36;;;;;;;5.65;5.15;;;4.50;99.90;;;;;;4963589;28;20284;-75
2021/03/03 05:58:03;;;;;;;5.03;4.65;;;4.50;99.90;;;;;;4963020;28;20248;-75
2021/03/03 06:00:30;;;;;;;4.28;3.97;;;4.50;99.90;;;;;;4962706;28;20225;-76
2021/03/03 06:02:57;;;;;;;4.57;4.18;;;4.40;99.90;;;;;;4969437;28;20301;-75
2021/03/03 06:05:25;;;;;;;3.85;3.60;;;4.40;99.90;;;;;;4972941;28;20285;-75
2021/03/03 06:07:53;;;;;;;3.58;3.35;;;4.30;99.90;;;;;;4965244;28;20217;-73
2021/03/03 06:10:19;;;;;;;3.63;3.42;;;4.30;99.90;;;;;;4966833;28;20248;-76
2021/03/03 06:12:49;;;;;;;4.10;3.72;;;4.30;99.90;;;;;;4965722;28;20292;-76
2021/03/03 06:15:17;;;;;;;4.05;3.75;;;4.30;99.90;;;;;;4964093;28;20700;-76
2021/03/03 06:17:44;;;;;;;3.60;3.40;;;4.40;99.90;;;;;;4962635;28;20237;-72
2021/03/03 06:20:11;;;;;;;4.25;3.95;;;4.40;99.90;;;;;;4965135;28;20222;-75
2021/03/03 06:22:39;;;;;;;4.18;3.85;;;4.50;99.90;;;;;;4964662;28;20280;-76
2021/03/03 06:25:18;;;;;;;3.38;3.17;;;4.50;99.90;;;;;;4966176;28;20284;-76
2021/03/03 06:27:45;;;;;;;3.70;3.40;;;4.50;99.90;;;;;;4961279;28;20224;-75
2021/03/03 06:30:14;;;;;;;4.00;3.70;;;4.50;99.90;;;;;;4967722;28;20233;-74
2021/03/03 06:32:54;;;;;;;3.78;3.47;;;4.50;99.90;;;;;;4965263;28;20248;-75
2021/03/03 06:35:22;;;;;;;3.35;3.15;;;4.60;99.90;;;;;;4967200;28;20222;-75
2021/03/03 06:37:57;;;;;;;3.40;3.20;;;4.60;99.90;;;;;;4963579;28;20726;-75
2021/03/03 06:40:24;;;;;;;4.13;3.80;;;4.60;99.90;;;;;;4965587;28;20216;-75
2021/03/03 06:42:51;;;;;;;5.35;3.35;;;4.60;99.90;;;;;;4963008;28;20734;-73
2021/03/03 06:45:28;;;;;;;3.55;3.30;;;4.70;99.90;;;;;;4964289;28;20236;-74
2021/03/03 06:47:55;;;;;;;4.20;3.90;;;4.70;99.90;;;;;;4961575;28;20287;-72
2021/03/03 06:50:32;;;;;;;3.53;3.25;;;4.70;99.90;;;;;;4958456;28;20249;-76
2021/03/03 06:52:59;;;;;;;3.90;3.60;;;4.70;99.90;;;;;;4960503;28;20232;-74
2021/03/03 06:55:43;;;;;;;3.92;3.65;;;4.70;99.90;;;;;;4995528;23;20252;-77
2021/03/03 06:58:26;;;;;;;3.58;3.33;;;4.70;99.90;;;;;;4976278;28;20239;-77
2021/03/03 07:00:53;;;;;;;3.60;3.40;;;4.80;99.90;;;;;;4964757;28;20727;-76
2021/03/03 07:03:28;;;;;;;3.58;3.33;;;4.80;99.90;;;;;;4956641;28;20232;-77
2021/03/03 07:05:55;;;;;;;3.92;3.63;;;4.90;99.90;;;;;;4962571;28;20229;-77
2021/03/03 07:08:23;;;;;;;3.97;3.70;;;5.00;99.90;;;;;;4957282;28;20730;-78
2021/03/03 07:10:49;;;;;;;4.13;3.80;;;5.40;99.90;;;;;;4960403;28;20253;-77
2021/03/03 07:13:17;;;;;;;4.25;3.85;;;6.10;99.90;;;;;;4960598;28;20653;-78
2021/03/03 07:15:43;;;;;;;3.97;3.67;;;6.80;99.90;;;;;;4959177;28;20218;-77
2021/03/03 07:18:33;;;;;;;4.30;3.65;;;7.50;99.90;;;;;;4960306;28;20715;-78
2021/03/03 07:21:00;;;;;;;3.95;3.65;;;8.20;99.90;;;;;;4956486;28;20252;-77
2021/03/03 07:23:49;;;;;;;4.30;4.00;;;8.80;99.90;;;;;;4960737;28;20637;-78
2021/03/03 07:26:17;;;;;;;4.53;3.85;;;9.40;99.90;;;;;;4956709;28;20272;-77
2021/03/03 07:28:44;;;;;;;4.32;3.92;;;9.70;99.70;;;;;;4959259;28;20906;-78
2021/03/03 07:31:12;;;;;;;4.55;4.15;;;10.00;99.20;;;;;;4957868;28;20225;-77
2021/03/03 07:33:39;;;;;;;4.70;4.30;;;10.30;99.30;;;;;;4958890;28;20236;-76
2021/03/03 07:36:07;;;;;;;4.50;3.92;;;10.60;98.80;;;;;;4961515;28;20225;-77
2021/03/03 07:38:37;;;;;;;4.07;3.67;;;11.00;98.70;;;;;;4958612;28;20221;-77
2021/03/03 07:41:12;;;;;;;4.20;3.80;;;11.40;97.90;;;;;;4956363;28;20589;-77
2021/03/03 07:43:44;;;;;;;4.30;3.90;;;11.60;97.60;;;;;;4959524;28;20217;-77
2021/03/03 07:46:11;;;;;;;4.00;3.60;;;11.90;97.00;;;;;;4962682;28;20214;-77
2021/03/03 07:48:40;;;;;;;4.07;3.67;;;12.30;97.00;;;;;;4958175;28;20708;-77
2021/03/03 07:51:08;;;;;;;4.28;3.50;;;12.70;96.80;;;;;;4956804;28;20222;-77
2021/03/03 07:53:39;;;;;;;4.15;3.75;;;12.90;96.80;;;;;;4959298;28;20210;-78
2021/03/03 07:56:09;;;;;;;3.65;3.22;;;12.90;96.60;;;;;;4959696;28;20226;-78
2021/03/03 07:58:37;;;;;;;3.88;3.50;;;13.40;96.20;;;;;;4959092;28;20254;-78
2021/03/03 08:01:05;;;;;;;4.78;3.80;;;13.60;96.10;;;;;;4961578;28;20213;-77
2021/03/03 08:03:45;;;;;;;4.00;3.60;;;13.90;96.10;;;;;;4961617;28;20244;-78
2021/03/03 08:06:36;;;;;;;5.40;4.55;;;14.10;95.90;;;;;;4962734;28;20229;-78
2021/03/03 08:09:20;;;;;;;3.53;3.22;;;14.00;95.90;;;;;;4961084;28;20327;-79
2021/03/03 08:12:02;;;;;;;6.35;3.78;;;14.00;95.50;;;;;;4958441;28;20240;-78
2021/03/03 08:14:35;;;;;;;6.78;3.75;;;14.00;95.80;;;;;;4960143;28;20237;-76
2021/03/03 08:17:03;;;;;;;3.95;3.63;;;14.00;95.30;;;;;;4958510;28;20291;-77
2021/03/03 08:19:59;;;;;;;4.40;4.00;;;13.90;95.60;;;;;;4963983;28;20312;-78
2021/03/03 08:22:49;;;;;;;5.22;4.00;;;13.70;95.30;;;;;;4958152;28;20222;-78
2021/03/03 08:25:45;;;;;;;4.40;3.97;;;13.40;95.60;;;;;;4962690;28;20225;-77
2021/03/03 08:28:35;;;;;;;5.28;3.75;;;12.90;96.20;;;;;;4964232;28;20226;-78
2021/03/03 08:31:24;;;;;;;3.50;3.20;;;12.50;96.30;;;;;;4959521;28;20229;-78
2021/03/03 08:34:06;;;;;;;4.00;3.67;;;12.20;96.50;;;;;;4949000;28;20213;-78
2021/03/03 08:37:03;;;;;;;3.70;3.33;;;12.10;97.00;;;;;;4957844;28;20230;-78
2021/03/03 08:39:32;;;;;;;3.67;3.38;;;11.90;97.60;;;;;;4961942;28;20228;-78
2021/03/03 08:42:01;;;;;;;3.58;3.25;;;11.80;97.60;;;;;;4961441;28;20225;-79
2021/03/03 08:44:28;;;;;;;3.83;3.53;;;11.80;97.80;;;;;;4965846;28;20229;-77
2021/03/03 08:46:55;;;;;;;3.92;3.50;;;11.90;97.60;;;;;;4960290;28;20231;-78
2021/03/03 08:49:30;;;;;;;4.05;3.58;;;11.90;98.10;;;;;;4964584;28;20221;-77
2021/03/03 08:52:11;;;;;;;4.35;3.67;;;11.80;97.90;;;;;;4960093;28;20236;-77
2021/03/03 08:54:43;;;;;;;6.13;3.70;;;11.50;98.10;;;;;;4957769;28;20304;-78
2021/03/03 08:57:30;;;;;;;4.55;3.83;;;11.40;98.20;;;;;;4955124;28;20584;-78
2021/03/03 08:59:58;;;;;;;4.03;3.70;;;11.40;98.30;;;;;;4959535;28;20793;-78
2021/03/03 09:02:36;;;;;;;4.60;3.70;;;11.30;98.20;;;;;;4950475;28;20226;-76
2021/03/03 09:05:11;;;;;;;3.55;3.25;;;11.20;98.60;;;;;;4949530;28;20222;-77
2021/03/03 09:07:39;;;;;;;5.50;3.80;;;11.20;98.70;;;;;;4945206;28;20759;-76
2021/03/03 09:10:10;;;;;;;6.32;3.70;;;11.20;98.80;;;;;;4945488;28;20287;-77
2021/03/03 09:12:40;;;;;;;3.75;3.45;;;11.60;98.80;;;;;;4952867;28;20255;-79
2021/03/03 09:15:10;;;;;;;4.60;4.10;;;11.80;98.70;;;;;;4955005;28;20225;-79
2021/03/03 09:17:37;;;;;;;5.28;4.78;;;11.80;98.70;;;;;;4955276;28;20229;-77
2021/03/03 09:20:07;;;;;;;3.78;3.47;;;11.70;98.40;;;;;;4962354;28;20210;-78
2021/03/03 09:22:36;;;;;;;3.95;3.63;;;11.50;98.90;;;;;;4958191;28;20225;-78
2021/03/03 09:25:11;;;;;;;5.10;3.67;;;11.40;98.90;;;;;;4956233;28;20640;-79
2021/03/03 09:27:38;;;;;;;4.10;3.80;;;11.30;99.20;;;;;;4961428;28;20240;-79
2021/03/03 09:30:08;;;;;;;4.15;3.72;;;11.40;99.10;;;;;;4960367;28;20297;-80
2021/03/03 09:32:34;;;;;;;4.30;3.90;;;11.60;99.30;;;;;;4964068;28;20225;-77
2021/03/03 09:35:04;;;;;;;6.03;4.38;;;11.90;98.70;;;;;;4959676;28;20727;-77
2021/03/03 09:37:37;;;;;;;4.80;4.40;;;12.00;98.30;;;;;;4959020;28;20229;-77
2021/03/03 09:40:06;;;;;;;3.95;3.45;;;12.10;98.10;;;;;;4956278;28;20233;-76
2021/03/03 09:42:38;;;;;;;4.07;3.70;;;12.30;97.90;;;;;;4960191;28;20761;-77
2021/03/03 09:45:08;;;;;;;4.70;3.67;;;12.50;97.70;;;;;;4963765;28;20584;-78
2021/03/03 09:47:37;;;;;;;4.10;3.70;;;12.90;96.80;;;;;;4956596;28;20221;-77
2021/03/03 09:50:08;;;;;;;3.72;3.38;;;12.90;96.60;;;;;;4956903;28;20217;-78
2021/03/03 09:52:39;;;;;;;3.83;3.38;;;12.90;96.50;;;;;;4958930;28;20236;-77
2021/03/03 09:55:09;;;;;;;4.07;3.78;;;12.80;96.60;;;;;;4956981;28;20233;-78
2021/03/03 09:57:36;;;;;;;4.25;3.50;;;12.80;96.60;;;;;;4948533;28;20225;-78
2021/03/03 10:00:09;;;;;;;3.58;3.28;;;12.70;96.80;;;;;;4958391;28;20594;-76
2021/03/03 10:02:38;;;;;;;5.07;3.53;;;12.50;96.80;;;;;;4951797;28;20241;-77
2021/03/03 10:05:06;;;;;;;4.88;3.80;;;12.50;96.90;;;;;;4956214;28;20232;-77
2021/03/03 10:07:33;;;;;;;4.78;3.42;;;12.60;97.10;;;;;;4953381;28;20232;-78
2021/03/03 10:10:01;;;;;;;3.53;3.22;;;12.60;96.30;;;;;;4953365;28;20234;-78
2021/03/03 10:12:35;;;;;;;4.57;3.60;;;12.60;96.60;;;;;;4956519;28;20234;-78
2021/03/03 10:15:05;;;;;;;4.25;3.33;;;12.60;96.00;;;;;;4956102;28;20280;-77
2021/03/03 10:17:38;;;;;;;4.53;3.63;;;12.50;96.00;;;;;;4957635;28;20231;-78
2021/03/03 10:20:26;;;;;;;3.20;2.92;;;12.50;95.70;;;;;;4954412;28;20569;-77
2021/03/03 10:22:54;;;;;;;3.88;3.28;;;12.40;95.30;;;;;;4955923;28;20217;-77
2021/03/03 10:25:30;;;;;;;3.60;3.30;;;12.40;95.30;;;;;;4956641;28;20280;-77
2021/03/03 10:28:03;;;;;;;3.58;3.28;;;12.50;94.80;;;;;;4954303;28;20681;-77
2021/03/03 10:30:31;;;;;;;7.20;4.10;;;12.70;95.40;;;;;;4955267;28;20313;-77
2021/03/03 10:32:59;;;;;;;3.50;3.20;;;12.60;95.40;;;;;;4954382;28;20263;-78
2021/03/03 10:35:29;;;;;;;3.72;3.38;;;12.60;95.30;;;;;;4953718;28;20229;-78
2021/03/03 10:38:09;;;;;;;3.40;3.20;;;12.70;95.20;;;;;;4956684;28;20487;-78
2021/03/03 10:40:39;;;;;;;5.57;3.55;;;12.80;95.30;;;;;;4956657;28;20217;-77
2021/03/03 10:43:13;;;;;;;4.40;3.72;;;12.80;95.10;;;;;;4957588;28;20226;-76
2021/03/03 10:45:39;;;;;;;5.05;3.50;;;13.00;95.30;;;;;;4955750;28;20719;-78
2021/03/03 10:48:08;;;;;;;3.55;3.25;;;13.20;95.40;;;;;;4956259;28;20229;-77
2021/03/03 10:50:48;;;;;;;4.18;3.78;;;13.50;95.40;;;;;;4955711;28;20254;-78
2021/03/03 10:53:15;;;;;;;4.35;3.17;;;14.00;95.00;;;;;;4957516;28;20364;-77
2021/03/03 10:55:42;;;;;;;4.07;3.15;;;14.10;94.20;;;;;;4952461;28;20720;-77
2021/03/03 10:58:11;;;;;;;4.45;3.80;;;14.10;94.00;;;;;;4953386;28;20840;-77
2021/03/03 11:01:02;;;;;;;5.38;3.35;;;13.90;93.90;;;;;;4954283;28;20229;-77
2021/03/03 11:03:31;;;;;;;3.50;3.15;;;13.70;93.80;;;;;;4938314;28;20234;-77
2021/03/03 11:05:59;;;;;;;3.33;3.03;;;13.60;94.30;;;;;;4960100;28;20225;-77
2021/03/03 11:08:27;;;;;;;4.78;3.50;;;13.60;94.70;;;;;;4959618;28;21244;-77
2021/03/03 11:11:04;;;;;;;4.32;3.30;;;13.80;94.40;;;;;;4961284;28;20230;-77
2021/03/03 11:13:30;;;;;;;4.40;3.65;;;13.90;94.50;;;;;;4958654;28;20705;-77
2021/03/03 11:15:57;;;;;;;3.70;3.35;;;13.90;94.10;;;;;;4959047;28;20599;-77
2021/03/03 11:18:23;;;;;;;4.38;3.20;;;14.00;94.60;;;;;;4956111;28;20232;-76
2021/03/03 11:20:51;;;;;;;3.33;3.03;;;13.90;94.30;;;;;;4955177;28;20225;-76
2021/03/03 11:23:18;;;;;;;3.53;3.17;;;13.90;93.90;;;;;;4959970;28;20217;-77
2021/03/03 11:25:44;;;;;;;4.05;3.50;;;13.90;93.90;;;;;;4957929;28;20225;-78
2021/03/03 11:28:11;;;;;;;3.60;3.25;;;14.00;93.40;;;;;;4957807;28;20236;-77
2021/03/03 11:30:39;;;;;;;3.53;3.20;;;14.10;93.70;;;;;;4953277;28;20225;-78
2021/03/03 11:33:06;;;;;;;4.80;2.83;;;14.10;93.40;;;;;;4958730;28;21039;-78
2021/03/03 11:35:32;;;;;;;3.60;2.83;;;14.10;93.40;;;;;;4959995;28;20693;-77
2021/03/03 11:38:00;;;;;;;3.55;2.70;;;14.10;93.30;;;;;;4958634;28;20230;-77
2021/03/03 11:40:27;;;;;;;3.50;3.20;;;14.20;93.30;;;;;;4956576;28;20232;-77
2021/03/03 11:42:53;;;;;;;4.50;2.67;;;14.20;93.30;;;;;;4958389;28;20225;-78
2021/03/03 11:45:20;;;;;;;3.15;2.85;;;14.30;93.20;;;;;;4956027;28;20217;-78
2021/03/03 11:47:47;;;;;;;2.70;2.50;;;14.30;93.30;;;;;;4956065;28;20225;-78
2021/03/03 11:50:13;;;;;;;3.70;2.80;;;14.40;92.60;;;;;;4959891;28;20594;-77
2021/03/03 11:52:40;;;;;;;3.95;2.85;;;14.40;93.00;;;;;;4960130;28;20298;-78
2021/03/03 11:55:11;;;;;;;4.28;2.83;;;14.40;92.40;;;;;;4957898;28;20244;-77
2021/03/03 11:57:38;;;;;;;4.25;3.10;;;14.40;92.60;;;;;;4958789;28;20313;-77
2021/03/03 12:00:08;;;;;;;3.40;3.05;;;14.50;93.10;;;;;;4957126;28;20740;-77
2021/03/03 12:02:35;;;;;;;3.20;2.90;;;14.70;94.90;;;;;;4957780;28;20283;-78
2021/03/03 12:05:02;;;;;;;3.40;3.10;;;15.00;93.60;;;;;;4954036;28;20225;-78
2021/03/03 12:07:28;;;;;;;3.65;2.80;;;14.90;92.30;;;;;;4958556;28;20233;-78
2021/03/03 12:09:55;;;;;;;4.03;3.20;;;15.00;92.60;;;;;;4956642;28;20234;-76
2021/03/03 12:12:23;;;;;;;3.40;3.03;;;15.00;92.50;;;;;;4961922;28;20226;-75
2021/03/03 12:14:49;;;;;;;3.53;3.20;;;15.10;92.80;;;;;;4958432;28;20229;-77
2021/03/03 12:17:16;;;;;;;5.15;3.00;;;15.10;92.40;;;;;;4955261;28;20779;-78
2021/03/03 12:19:42;;;;;;;6.88;2.80;;;15.00;92.00;;;;;;4951343;28;20281;-75
2021/03/03 12:22:09;;;;;;;6.03;3.45;;;15.00;92.40;;;;;;4953631;28;20237;-78
2021/03/03 12:24:36;;;;;;;3.33;3.03;;;15.00;92.20;;;;;;4954841;28;20269;-76
2021/03/03 12:27:03;;;;;;;4.03;2.63;;;15.00;91.70;;;;;;4954808;28;20229;-76
2021/03/03 12:29:30;;;;;;;4.22;2.60;;;15.00;92.10;;;;;;4954726;28;20230;-77
2021/03/03 12:31:57;;;;;;;3.25;2.78;;;14.70;91.30;;;;;;4954446;28;20225;-76
2021/03/03 12:34:25;;;;;;;2.63;2.42;;;14.60;91.70;;;;;;4952725;28;20225;-77
2021/03/03 12:36:52;;;;;;;3.15;2.70;;;14.70;92.20;;;;;;4959403;28;20253;-78
2021/03/03 12:39:19;;;;;;;3.00;2.70;;;14.60;92.00;;;;;;4957936;28;20224;-77
2021/03/03 12:41:45;;;;;;;2.70;2.50;;;14.40;92.40;;;;;;4953746;28;20231;-77
2021/03/03 12:44:12;;;;;;;3.22;2.95;;;14.40;92.50;;;;;;4962012;28;20221;-76
2021/03/03 12:46:40;;;;;;;2.88;2.67;;;14.30;92.40;;;;;;4959968;28;20240;-77
2021/03/03 12:49:26;;;;;;;3.08;2.78;;;14.40;92.40;;;;;;4954348;28;21508;-77
2021/03/03 12:51:52;;;;;;;3.42;2.85;;;14.30;92.20;;;;;;4946623;28;20228;-77
2021/03/03 12:54:19;;;;;;;3.17;2.88;;;14.40;92.30;;;;;;4949592;28;22542;-77
2021/03/03 12:56:46;;;;;;;3.33;2.70;;;14.30;92.10;;;;;;4956852;28;20228;-76
2021/03/03 12:59:12;;;;;;;2.60;2.33;;;14.40;92.70;;;;;;4947278;28;20237;-76
2021/03/03 13:01:40;;;;;;;3.20;2.92;;;14.40;92.70;;;;;;4951992;28;20218;-78
2021/03/03 13:04:07;;;;;;;3.63;3.20;;;14.40;92.50;;;;;;4962823;28;20707;-76
2021/03/03 13:06:33;;;;;;;2.63;2.42;;;14.40;92.50;;;;;;4959692;28;20441;-76
2021/03/03 13:09:00;;;;;;;3.53;3.00;;;14.50;92.40;;;;;;4958332;28;20623;-77